sensor_id;sensor_type;location;lat;lon;timestamp;P1;durP1;ratioP1;P2;durP2;ratioP2
6809;SDS011;3443;48.812;9.112;2022-12-26T00:00:10;1.60;;;1.20;;
6809;SDS011;3443;48.812;9.112;2022-12-26T00:02:36;1.20;;;1.20;;
6809;SDS011;3443;48.812;9.112;2022-12-26T00:05:02;1.25;;;1.25;;
6809;SDS011;3443;48.812;9.112;2022-12-26T00:07:28;1.08;;;1.08;;
6809;SDS011;3443;48.812;9.112;2022-12-26T00:09:53;1.40;;;1.40;;
6809;SDS011;3443;48.812;9.112;2022-12-26T00:12:19;1.95;;;1.40;;
6809;SDS011;3443;48.812;9.112;2022-12-26T00:14:44;1.38;;;1.38;;
6809;SDS011;3443;48.812;9.112;2022-12-26T00:17:10;1.40;;;1.40;;
6809;SDS011;3443;48.812;9.112;2022-12-26T00:19:35;1.58;;;1.10;;
6809;SDS011;3443;48.812;9.112;2022-12-26T00:22:01;1.23;;;1.10;;
6809;SDS011;3443;48.812;9.112;2022-12-26T00:24:27;1.52;;;1.42;;
6809;SDS011;3443;48.812;9.112;2022-12-26T00:26:52;2.03;;;1.30;;
6809;SDS011;3443;48.812;9.112;2022-12-26T00:29:18;1.25;;;1.15;;
6809;SDS011;3443;48.812;9.112;2022-12-26T00:31:43;1.77;;;1.20;;
6809;SDS011;3443;48.812;9.112;2022-12-26T00:34:10;1.10;;;1.10;;
6809;SDS011;3443;48.812;9.112;2022-12-26T00:36:36;1.35;;;1.27;;
6809;SDS011;3443;48.812;9.112;2022-12-26T00:39:02;1.00;;;1.00;;
6809;SDS011;3443;48.812;9.112;2022-12-26T00:41:28;2.28;;;1.00;;
6809;SDS011;3443;48.812;9.112;2022-12-26T00:43:54;1.23;;;1.23;;
6809;SDS011;3443;48.812;9.112;2022-12-26T00:46:20;1.13;;;1.13;;
6809;SDS011;3443;48.812;9.112;2022-12-26T00:48:46;1.20;;;1.20;;
6809;SDS011;3443;48.812;9.112;2022-12-26T00:51:11;1.80;;;1.30;;
6809;SDS011;3443;48.812;9.112;2022-12-26T00:53:38;1.45;;;1.40;;
6809;SDS011;3443;48.812;9.112;2022-12-26T00:56:04;1.58;;;1.50;;
6809;SDS011;3443;48.812;9.112;2022-12-26T00:58:30;1.52;;;1.50;;
6809;SDS011;3443;48.812;9.112;2022-12-26T01:01:03;1.08;;;1.05;;
6809;SDS011;3443;48.812;9.112;2022-12-26T01:03:33;1.40;;;1.10;;
6809;SDS011;3443;48.812;9.112;2022-12-26T01:06:00;1.20;;;1.20;;
6809;SDS011;3443;48.812;9.112;2022-12-26T01:08:27;1.30;;;1.30;;
6809;SDS011;3443;48.812;9.112;2022-12-26T01:10:53;1.33;;;1.20;;
6809;SDS011;3443;48.812;9.112;2022-12-26T01:13:19;1.25;;;1.25;;
6809;SDS011;3443;48.812;9.112;2022-12-26T01:15:51;1.40;;;1.40;;
6809;SDS011;3443;48.812;9.112;2022-12-26T01:18:18;1.42;;;1.42;;
6809;SDS011;3443;48.812;9.112;2022-12-26T01:20:44;1.70;;;1.60;;
6809;SDS011;3443;48.812;9.112;2022-12-26T01:23:10;1.55;;;1.40;;
6809;SDS011;3443;48.812;9.112;2022-12-26T01:25:36;2.22;;;1.50;;
6809;SDS011;3443;48.812;9.112;2022-12-26T01:28:03;1.58;;;1.50;;
6809;SDS011;3443;48.812;9.112;2022-12-26T01:30:29;1.52;;;1.52;;
6809;SDS011;3443;48.812;9.112;2022-12-26T01:32:54;1.65;;;1.65;;
6809;SDS011;3443;48.812;9.112;2022-12-26T01:35:20;1.20;;;1.20;;
6809;SDS011;3443;48.812;9.112;2022-12-26T01:37:46;1.90;;;1.50;;
6809;SDS011;3443;48.812;9.112;2022-12-26T01:40:11;1.80;;;1.67;;
6809;SDS011;3443;48.812;9.112;2022-12-26T01:42:37;1.42;;;1.42;;
6809;SDS011;3443;48.812;9.112;2022-12-26T01:53:11;1.60;;;1.52;;
6809;SDS011;3443;48.812;9.112;2022-12-26T01:55:42;1.45;;;1.38;;
6809;SDS011;3443;48.812;9.112;2022-12-26T01:58:11;1.45;;;1.10;;
6809;SDS011;3443;48.812;9.112;2022-12-26T02:00:45;1.30;;;1.30;;
6809;SDS011;3443;48.812;9.112;2022-12-26T02:03:12;1.67;;;1.58;;
6809;SDS011;3443;48.812;9.112;2022-12-26T02:05:56;1.77;;;1.63;;
6809;SDS011;3443;48.812;9.112;2022-12-26T02:08:26;1.33;;;1.30;;
6809;SDS011;3443;48.812;9.112;2022-12-26T02:13:33;4.03;;;1.40;;
6809;SDS011;3443;48.812;9.112;2022-12-26T02:16:01;1.50;;;1.40;;
6809;SDS011;3443;48.812;9.112;2022-12-26T02:18:28;2.50;;;1.45;;
6809;SDS011;3443;48.812;9.112;2022-12-26T02:32:14;1.83;;;1.50;;
6809;SDS011;3443;48.812;9.112;2022-12-26T02:35:09;1.35;;;1.25;;
6809;SDS011;3443;48.812;9.112;2022-12-26T02:52:28;1.65;;;1.30;;
6809;SDS011;3443;48.812;9.112;2022-12-26T02:55:23;1.30;;;1.30;;
6809;SDS011;3443;48.812;9.112;2022-12-26T02:58:14;1.00;;;1.00;;
6809;SDS011;3443;48.812;9.112;2022-12-26T03:01:47;1.17;;;1.10;;
6809;SDS011;3443;48.812;9.112;2022-12-26T03:04:36;1.27;;;1.17;;
6809;SDS011;3443;48.812;9.112;2022-12-26T03:07:26;1.70;;;1.23;;
6809;SDS011;3443;48.812;9.112;2022-12-26T03:10:15;1.05;;;1.05;;
6809;SDS011;3443;48.812;9.112;2022-12-26T03:13:04;0.93;;;0.93;;
6809;SDS011;3443;48.812;9.112;2022-12-26T03:15:44;1.35;;;1.25;;
6809;SDS011;3443;48.812;9.112;2022-12-26T03:18:35;1.30;;;1.30;;
6809;SDS011;3443;48.812;9.112;2022-12-26T03:21:04;1.17;;;1.17;;
6809;SDS011;3443;48.812;9.112;2022-12-26T03:23:32;1.20;;;1.20;;
6809;SDS011;3443;48.812;9.112;2022-12-26T03:26:07;1.45;;;1.45;;
6809;SDS011;3443;48.812;9.112;2022-12-26T03:28:54;2.08;;;1.15;;
6809;SDS011;3443;48.812;9.112;2022-12-26T03:31:40;1.95;;;1.40;;
6809;SDS011;3443;48.812;9.112;2022-12-26T03:34:05;1.52;;;1.38;;
6809;SDS011;3443;48.812;9.112;2022-12-26T03:45:44;1.20;;;1.20;;
6809;SDS011;3443;48.812;9.112;2022-12-26T03:54:56;1.10;;;1.10;;
6809;SDS011;3443;48.812;9.112;2022-12-26T03:58:34;0.98;;;0.98;;
6809;SDS011;3443;48.812;9.112;2022-12-26T04:01:07;1.13;;;1.13;;
6809;SDS011;3443;48.812;9.112;2022-12-26T04:03:57;3.30;;;1.40;;
6809;SDS011;3443;48.812;9.112;2022-12-26T04:07:08;1.40;;;1.30;;
6809;SDS011;3443;48.812;9.112;2022-12-26T04:12:53;0.95;;;0.95;;
6809;SDS011;3443;48.812;9.112;2022-12-26T04:18:44;1.13;;;1.13;;
6809;SDS011;3443;48.812;9.112;2022-12-26T04:21:41;1.20;;;1.10;;
6809;SDS011;3443;48.812;9.112;2022-12-26T04:24:36;1.17;;;1.08;;
6809;SDS011;3443;48.812;9.112;2022-12-26T04:27:25;1.30;;;1.20;;
6809;SDS011;3443;48.812;9.112;2022-12-26T04:30:12;1.05;;;1.05;;
6809;SDS011;3443;48.812;9.112;2022-12-26T04:32:58;1.15;;;1.10;;
6809;SDS011;3443;48.812;9.112;2022-12-26T04:35:50;1.60;;;1.30;;
6809;SDS011;3443;48.812;9.112;2022-12-26T04:38:43;0.98;;;0.98;;
6809;SDS011;3443;48.812;9.112;2022-12-26T04:41:38;1.13;;;1.05;;
6809;SDS011;3443;48.812;9.112;2022-12-26T04:44:24;1.10;;;1.10;;
6809;SDS011;3443;48.812;9.112;2022-12-26T04:46:52;2.25;;;1.38;;
6809;SDS011;3443;48.812;9.112;2022-12-26T04:49:19;1.23;;;1.10;;
6809;SDS011;3443;48.812;9.112;2022-12-26T04:52:04;1.40;;;1.30;;
6809;SDS011;3443;48.812;9.112;2022-12-26T04:54:35;1.27;;;1.27;;
6809;SDS011;3443;48.812;9.112;2022-12-26T04:57:00;1.00;;;1.00;;
6809;SDS011;3443;48.812;9.112;2022-12-26T04:59:26;1.20;;;1.10;;
6809;SDS011;3443;48.812;9.112;2022-12-26T05:01:52;1.55;;;1.30;;
6809;SDS011;3443;48.812;9.112;2022-12-26T05:04:36;1.30;;;1.30;;
6809;SDS011;3443;48.812;9.112;2022-12-26T05:07:34;2.47;;;1.20;;
6809;SDS011;3443;48.812;9.112;2022-12-26T05:10:20;1.67;;;1.10;;
6809;SDS011;3443;48.812;9.112;2022-12-26T05:12:50;1.38;;;1.30;;
6809;SDS011;3443;48.812;9.112;2022-12-26T05:15:16;1.30;;;1.30;;
6809;SDS011;3443;48.812;9.112;2022-12-26T05:17:42;0.95;;;0.95;;
6809;SDS011;3443;48.812;9.112;2022-12-26T05:20:27;0.98;;;0.98;;
6809;SDS011;3443;48.812;9.112;2022-12-26T05:23:20;1.10;;;1.10;;
6809;SDS011;3443;48.812;9.112;2022-12-26T05:26:10;1.77;;;1.20;;
6809;SDS011;3443;48.812;9.112;2022-12-26T05:28:59;1.10;;;1.10;;
6809;SDS011;3443;48.812;9.112;2022-12-26T05:31:27;1.00;;;1.00;;
6809;SDS011;3443;48.812;9.112;2022-12-26T05:33:53;1.52;;;1.02;;
6809;SDS011;3443;48.812;9.112;2022-12-26T05:36:52;2.05;;;1.10;;
6809;SDS011;3443;48.812;9.112;2022-12-26T05:39:20;1.20;;;1.10;;
6809;SDS011;3443;48.812;9.112;2022-12-26T05:41:46;1.25;;;0.80;;
6809;SDS011;3443;48.812;9.112;2022-12-26T05:44:12;1.05;;;1.05;;
6809;SDS011;3443;48.812;9.112;2022-12-26T05:46:38;1.10;;;1.10;;
6809;SDS011;3443;48.812;9.112;2022-12-26T05:49:06;1.30;;;1.30;;
6809;SDS011;3443;48.812;9.112;2022-12-26T05:51:32;1.00;;;1.00;;
6809;SDS011;3443;48.812;9.112;2022-12-26T05:53:58;1.30;;;1.20;;
6809;SDS011;3443;48.812;9.112;2022-12-26T05:56:24;1.55;;;1.20;;
6809;SDS011;3443;48.812;9.112;2022-12-26T05:58:54;1.75;;;1.17;;
6809;SDS011;3443;48.812;9.112;2022-12-26T06:01:21;2.53;;;1.27;;
6809;SDS011;3443;48.812;9.112;2022-12-26T06:03:50;1.10;;;1.10;;
6809;SDS011;3443;48.812;9.112;2022-12-26T06:06:20;1.02;;;1.02;;
6809;SDS011;3443;48.812;9.112;2022-12-26T06:08:46;1.25;;;1.10;;
6809;SDS011;3443;48.812;9.112;2022-12-26T06:11:13;1.27;;;1.27;;
6809;SDS011;3443;48.812;9.112;2022-12-26T06:13:39;1.60;;;1.17;;
6809;SDS011;3443;48.812;9.112;2022-12-26T06:16:05;1.30;;;1.30;;
6809;SDS011;3443;48.812;9.112;2022-12-26T06:18:38;2.25;;;1.05;;
6809;SDS011;3443;48.812;9.112;2022-12-26T06:21:05;0.88;;;0.88;;
6809;SDS011;3443;48.812;9.112;2022-12-26T06:23:33;1.35;;;1.23;;
6809;SDS011;3443;48.812;9.112;2022-12-26T06:25:59;1.23;;;1.10;;
6809;SDS011;3443;48.812;9.112;2022-12-26T06:28:25;1.42;;;1.23;;
6809;SDS011;3443;48.812;9.112;2022-12-26T06:30:51;1.10;;;1.10;;
6809;SDS011;3443;48.812;9.112;2022-12-26T06:33:17;1.27;;;1.27;;
6809;SDS011;3443;48.812;9.112;2022-12-26T06:35:43;1.00;;;1.00;;
6809;SDS011;3443;48.812;9.112;2022-12-26T06:38:08;1.92;;;1.10;;
6809;SDS011;3443;48.812;9.112;2022-12-26T06:40:38;1.17;;;1.10;;
6809;SDS011;3443;48.812;9.112;2022-12-26T06:43:04;0.95;;;0.90;;
6809;SDS011;3443;48.812;9.112;2022-12-26T06:45:30;1.27;;;1.20;;
6809;SDS011;3443;48.812;9.112;2022-12-26T06:47:56;1.33;;;1.23;;
6809;SDS011;3443;48.812;9.112;2022-12-26T06:50:23;1.42;;;1.33;;
6809;SDS011;3443;48.812;9.112;2022-12-26T06:52:48;2.60;;;1.40;;
6809;SDS011;3443;48.812;9.112;2022-12-26T06:55:14;3.03;;;1.30;;
6809;SDS011;3443;48.812;9.112;2022-12-26T06:57:39;1.15;;;0.88;;
6809;SDS011;3443;48.812;9.112;2022-12-26T07:00:05;1.38;;;1.20;;
6809;SDS011;3443;48.812;9.112;2022-12-26T07:02:31;1.60;;;1.00;;
6809;SDS011;3443;48.812;9.112;2022-12-26T07:04:57;0.93;;;0.93;;
6809;SDS011;3443;48.812;9.112;2022-12-26T07:07:22;1.73;;;1.00;;
6809;SDS011;3443;48.812;9.112;2022-12-26T07:09:48;2.03;;;1.08;;
6809;SDS011;3443;48.812;9.112;2022-12-26T07:12:13;1.00;;;1.00;;
6809;SDS011;3443;48.812;9.112;2022-12-26T07:14:39;2.25;;;1.20;;
6809;SDS011;3443;48.812;9.112;2022-12-26T07:17:05;2.05;;;1.40;;
6809;SDS011;3443;48.812;9.112;2022-12-26T07:19:30;1.40;;;1.30;;
6809;SDS011;3443;48.812;9.112;2022-12-26T07:21:56;2.03;;;1.23;;
6809;SDS011;3443;48.812;9.112;2022-12-26T07:24:21;10.27;;;2.78;;
6809;SDS011;3443;48.812;9.112;2022-12-26T07:26:47;1.60;;;1.48;;
6809;SDS011;3443;48.812;9.112;2022-12-26T07:29:13;1.45;;;1.35;;
6809;SDS011;3443;48.812;9.112;2022-12-26T07:31:39;1.23;;;1.23;;
6809;SDS011;3443;48.812;9.112;2022-12-26T07:34:06;1.40;;;1.20;;
6809;SDS011;3443;48.812;9.112;2022-12-26T07:36:32;1.30;;;1.30;;
6809;SDS011;3443;48.812;9.112;2022-12-26T07:38:57;8.05;;;2.13;;
6809;SDS011;3443;48.812;9.112;2022-12-26T07:41:23;0.95;;;0.93;;
6809;SDS011;3443;48.812;9.112;2022-12-26T07:44:08;1.30;;;1.23;;
6809;SDS011;3443;48.812;9.112;2022-12-26T07:46:34;1.77;;;1.30;;
6809;SDS011;3443;48.812;9.112;2022-12-26T07:48:59;1.48;;;1.10;;
6809;SDS011;3443;48.812;9.112;2022-12-26T07:51:25;1.02;;;1.02;;
6809;SDS011;3443;48.812;9.112;2022-12-26T07:53:51;1.60;;;1.50;;
6809;SDS011;3443;48.812;9.112;2022-12-26T07:56:17;1.77;;;1.17;;
6809;SDS011;3443;48.812;9.112;2022-12-26T07:58:42;1.33;;;1.33;;
6809;SDS011;3443;48.812;9.112;2022-12-26T08:01:08;1.30;;;1.30;;
6809;SDS011;3443;48.812;9.112;2022-12-26T08:03:33;1.60;;;1.60;;
6809;SDS011;3443;48.812;9.112;2022-12-26T08:05:59;1.40;;;1.05;;
6809;SDS011;3443;48.812;9.112;2022-12-26T08:08:25;2.72;;;1.50;;
6809;SDS011;3443;48.812;9.112;2022-12-26T08:10:57;1.40;;;1.40;;
6809;SDS011;3443;48.812;9.112;2022-12-26T08:13:24;1.23;;;1.13;;
6809;SDS011;3443;48.812;9.112;2022-12-26T08:15:51;1.73;;;1.00;;
6809;SDS011;3443;48.812;9.112;2022-12-26T08:18:16;1.10;;;1.10;;
6809;SDS011;3443;48.812;9.112;2022-12-26T08:20:42;1.30;;;1.30;;
6809;SDS011;3443;48.812;9.112;2022-12-26T08:23:07;1.60;;;1.05;;
6809;SDS011;3443;48.812;9.112;2022-12-26T08:25:33;1.50;;;1.20;;
6809;SDS011;3443;48.812;9.112;2022-12-26T08:27:59;1.38;;;1.20;;
6809;SDS011;3443;48.812;9.112;2022-12-26T08:30:24;1.20;;;1.20;;
6809;SDS011;3443;48.812;9.112;2022-12-26T08:32:50;1.13;;;1.13;;
6809;SDS011;3443;48.812;9.112;2022-12-26T08:35:16;1.25;;;1.25;;
6809;SDS011;3443;48.812;9.112;2022-12-26T08:37:41;1.63;;;1.52;;
6809;SDS011;3443;48.812;9.112;2022-12-26T08:40:07;1.30;;;1.30;;
6809;SDS011;3443;48.812;9.112;2022-12-26T08:42:33;2.22;;;1.38;;
6809;SDS011;3443;48.812;9.112;2022-12-26T08:44:59;1.80;;;1.67;;
6809;SDS011;3443;48.812;9.112;2022-12-26T08:47:24;1.40;;;1.30;;
6809;SDS011;3443;48.812;9.112;2022-12-26T08:49:51;1.10;;;1.10;;
6809;SDS011;3443;48.812;9.112;2022-12-26T08:52:17;1.60;;;1.50;;
6809;SDS011;3443;48.812;9.112;2022-12-26T08:54:42;1.48;;;1.38;;
6809;SDS011;3443;48.812;9.112;2022-12-26T08:57:08;1.80;;;1.70;;
6809;SDS011;3443;48.812;9.112;2022-12-26T08:59:34;1.70;;;1.60;;
6809;SDS011;3443;48.812;9.112;2022-12-26T09:01:59;1.50;;;1.40;;
6809;SDS011;3443;48.812;9.112;2022-12-26T09:04:25;2.65;;;1.75;;
6809;SDS011;3443;48.812;9.112;2022-12-26T09:06:50;2.05;;;1.52;;
6809;SDS011;3443;48.812;9.112;2022-12-26T09:09:16;2.13;;;1.85;;
6809;SDS011;3443;48.812;9.112;2022-12-26T09:11:42;2.10;;;1.70;;
6809;SDS011;3443;48.812;9.112;2022-12-26T09:14:08;2.28;;;1.48;;
6809;SDS011;3443;48.812;9.112;2022-12-26T09:16:36;1.63;;;1.63;;
6809;SDS011;3443;48.812;9.112;2022-12-26T09:19:06;1.95;;;1.80;;
6809;SDS011;3443;48.812;9.112;2022-12-26T09:21:34;1.58;;;1.48;;
6809;SDS011;3443;48.812;9.112;2022-12-26T09:24:01;1.58;;;1.58;;
6809;SDS011;3443;48.812;9.112;2022-12-26T09:26:29;2.00;;;1.90;;
6809;SDS011;3443;48.812;9.112;2022-12-26T09:28:55;2.00;;;1.90;;
6809;SDS011;3443;48.812;9.112;2022-12-26T09:31:22;1.90;;;1.80;;
6809;SDS011;3443;48.812;9.112;2022-12-26T09:33:50;2.15;;;2.00;;
6809;SDS011;3443;48.812;9.112;2022-12-26T09:36:18;1.90;;;1.80;;
6809;SDS011;3443;48.812;9.112;2022-12-26T09:38:46;3.90;;;2.13;;
6809;SDS011;3443;48.812;9.112;2022-12-26T09:49:34;2.70;;;2.53;;
6809;SDS011;3443;48.812;9.112;2022-12-26T09:52:11;2.95;;;2.45;;
6809;SDS011;3443;48.812;9.112;2022-12-26T09:54:53;2.72;;;2.53;;
6809;SDS011;3443;48.812;9.112;2022-12-26T09:57:23;4.75;;;3.22;;
6809;SDS011;3443;48.812;9.112;2022-12-26T09:59:59;3.08;;;2.88;;
6809;SDS011;3443;48.812;9.112;2022-12-26T10:02:28;3.47;;;2.92;;
6809;SDS011;3443;48.812;9.112;2022-12-26T10:04:54;11.05;;;8.82;;
6809;SDS011;3443;48.812;9.112;2022-12-26T10:12:52;3.00;;;2.70;;
6809;SDS011;3443;48.812;9.112;2022-12-26T10:15:30;3.58;;;3.15;;
6809;SDS011;3443;48.812;9.112;2022-12-26T10:18:25;3.50;;;3.20;;
6809;SDS011;3443;48.812;9.112;2022-12-26T10:21:27;2.97;;;2.70;;
6809;SDS011;3443;48.812;9.112;2022-12-26T10:23:50;3.65;;;3.35;;
6809;SDS011;3443;48.812;9.112;2022-12-26T10:26:24;3.15;;;2.95;;
6809;SDS011;3443;48.812;9.112;2022-12-26T10:31:55;3.33;;;3.03;;
6809;SDS011;3443;48.812;9.112;2022-12-26T10:34:25;3.35;;;3.13;;
6809;SDS011;3443;48.812;9.112;2022-12-26T10:37:15;1.48;;;1.48;;
6809;SDS011;3443;48.812;9.112;2022-12-26T10:42:41;1.10;;;1.10;;
6809;SDS011;3443;48.812;9.112;2022-12-26T10:48:02;1.30;;;1.30;;
6809;SDS011;3443;48.812;9.112;2022-12-26T10:50:29;1.27;;;1.27;;
6809;SDS011;3443;48.812;9.112;2022-12-26T10:52:57;1.75;;;1.08;;
6809;SDS011;3443;48.812;9.112;2022-12-26T10:55:28;0.90;;;0.90;;
6809;SDS011;3443;48.812;9.112;2022-12-26T10:58:00;1.23;;;1.23;;
6809;SDS011;3443;48.812;9.112;2022-12-26T11:00:30;1.00;;;1.00;;
6809;SDS011;3443;48.812;9.112;2022-12-26T11:05:28;0.80;;;0.80;;
6809;SDS011;3443;48.812;9.112;2022-12-26T11:07:56;0.93;;;0.93;;
6809;SDS011;3443;48.812;9.112;2022-12-26T11:10:39;1.08;;;1.00;;
6809;SDS011;3443;48.812;9.112;2022-12-26T11:13:17;0.73;;;0.73;;
6809;SDS011;3443;48.812;9.112;2022-12-26T11:15:47;0.60;;;0.60;;
6809;SDS011;3443;48.812;9.112;2022-12-26T11:20:52;0.70;;;0.70;;
6809;SDS011;3443;48.812;9.112;2022-12-26T11:23:25;0.73;;;0.60;;
6809;SDS011;3443;48.812;9.112;2022-12-26T11:25:53;1.55;;;0.60;;
6809;SDS011;3443;48.812;9.112;2022-12-26T11:28:24;0.93;;;0.40;;
6809;SDS011;3443;48.812;9.112;2022-12-26T11:30:59;0.45;;;0.45;;
6809;SDS011;3443;48.812;9.112;2022-12-26T11:33:28;0.40;;;0.40;;
6809;SDS011;3443;48.812;9.112;2022-12-26T11:38:32;0.90;;;0.90;;
6809;SDS011;3443;48.812;9.112;2022-12-26T11:41:13;0.70;;;0.70;;
6809;SDS011;3443;48.812;9.112;2022-12-26T11:44:01;0.77;;;0.30;;
6809;SDS011;3443;48.812;9.112;2022-12-26T11:46:38;1.02;;;0.40;;
6809;SDS011;3443;48.812;9.112;2022-12-26T11:49:05;0.30;;;0.30;;
6809;SDS011;3443;48.812;9.112;2022-12-26T11:51:41;1.52;;;0.38;;
6809;SDS011;3443;48.812;9.112;2022-12-26T11:56:58;0.20;;;0.20;;
6809;SDS011;3443;48.812;9.112;2022-12-26T11:59:39;0.28;;;0.28;;
6809;SDS011;3443;48.812;9.112;2022-12-26T12:02:12;1.20;;;0.20;;
6809;SDS011;3443;48.812;9.112;2022-12-26T12:04:50;0.20;;;0.20;;
6809;SDS011;3443;48.812;9.112;2022-12-26T12:21:35;0.35;;;0.30;;
6809;SDS011;3443;48.812;9.112;2022-12-26T12:35:19;0.50;;;0.28;;
6809;SDS011;3443;48.812;9.112;2022-12-26T12:43:42;0.20;;;0.20;;
6809;SDS011;3443;48.812;9.112;2022-12-26T13:03:00;0.20;;;0.15;;
6809;SDS011;3443;48.812;9.112;2022-12-26T13:05:40;0.20;;;0.20;;
6809;SDS011;3443;48.812;9.112;2022-12-26T13:08:23;0.20;;;0.20;;
6809;SDS011;3443;48.812;9.112;2022-12-26T13:11:13;0.30;;;0.30;;
6809;SDS011;3443;48.812;9.112;2022-12-26T13:13:56;1.10;;;0.20;;
6809;SDS011;3443;48.812;9.112;2022-12-26T13:16:26;0.20;;;0.20;;
6809;SDS011;3443;48.812;9.112;2022-12-26T13:18:57;0.17;;;0.17;;
6809;SDS011;3443;48.812;9.112;2022-12-26T13:21:31;0.20;;;0.20;;
6809;SDS011;3443;48.812;9.112;2022-12-26T13:24:12;0.30;;;0.20;;
6809;SDS011;3443;48.812;9.112;2022-12-26T13:29:36;0.30;;;0.22;;
6809;SDS011;3443;48.812;9.112;2022-12-26T13:34:49;0.20;;;0.20;;
6809;SDS011;3443;48.812;9.112;2022-12-26T13:39:57;0.50;;;0.50;;
6809;SDS011;3443;48.812;9.112;2022-12-26T13:42:29;0.45;;;0.30;;
6809;SDS011;3443;48.812;9.112;2022-12-26T13:48:45;0.20;;;0.20;;
6809;SDS011;3443;48.812;9.112;2022-12-26T13:50:57;0.70;;;0.17;;
6809;SDS011;3443;48.812;9.112;2022-12-26T13:53:30;0.85;;;0.40;;
6809;SDS011;3443;48.812;9.112;2022-12-26T13:56:03;0.20;;;0.20;;
6809;SDS011;3443;48.812;9.112;2022-12-26T13:58:44;0.35;;;0.35;;
6809;SDS011;3443;48.812;9.112;2022-12-26T14:12:45;0.20;;;0.20;;
6809;SDS011;3443;48.812;9.112;2022-12-26T14:15:36;0.32;;;0.32;;
6809;SDS011;3443;48.812;9.112;2022-12-26T14:18:30;0.32;;;0.32;;
6809;SDS011;3443;48.812;9.112;2022-12-26T14:24:20;0.20;;;0.20;;
6809;SDS011;3443;48.812;9.112;2022-12-26T14:27:28;0.32;;;0.25;;
6809;SDS011;3443;48.812;9.112;2022-12-26T14:39:02;0.30;;;0.30;;
6809;SDS011;3443;48.812;9.112;2022-12-26T14:42:09;0.55;;;0.35;;
6809;SDS011;3443;48.812;9.112;2022-12-26T14:44:59;1.20;;;0.35;;
6809;SDS011;3443;48.812;9.112;2022-12-26T14:47:37;0.30;;;0.30;;
6809;SDS011;3443;48.812;9.112;2022-12-26T14:55:59;2.53;;;2.33;;
6809;SDS011;3443;48.812;9.112;2022-12-26T15:31:46;0.50;;;0.50;;
6809;SDS011;3443;48.812;9.112;2022-12-26T15:37:17;0.30;;;0.30;;
6809;SDS011;3443;48.812;9.112;2022-12-26T15:39:56;0.30;;;0.30;;
6809;SDS011;3443;48.812;9.112;2022-12-26T15:43:40;0.40;;;0.40;;
6809;SDS011;3443;48.812;9.112;2022-12-26T15:45:53;0.80;;;0.30;;
6809;SDS011;3443;48.812;9.112;2022-12-26T15:51:08;0.47;;;0.47;;
6809;SDS011;3443;48.812;9.112;2022-12-26T15:56:35;0.40;;;0.40;;
6809;SDS011;3443;48.812;9.112;2022-12-26T16:07:48;0.47;;;0.47;;
6809;SDS011;3443;48.812;9.112;2022-12-26T16:13:04;0.30;;;0.30;;
6809;SDS011;3443;48.812;9.112;2022-12-26T16:15:47;0.20;;;0.20;;
6809;SDS011;3443;48.812;9.112;2022-12-26T16:18:20;0.50;;;0.50;;
6809;SDS011;3443;48.812;9.112;2022-12-26T16:20:51;0.20;;;0.20;;
6809;SDS011;3443;48.812;9.112;2022-12-26T16:23:39;0.30;;;0.30;;
6809;SDS011;3443;48.812;9.112;2022-12-26T16:26:13;0.30;;;0.30;;
6809;SDS011;3443;48.812;9.112;2022-12-26T16:28:50;0.38;;;0.32;;
6809;SDS011;3443;48.812;9.112;2022-12-26T16:31:35;0.30;;;0.30;;
6809;SDS011;3443;48.812;9.112;2022-12-26T16:34:02;0.40;;;0.40;;
6809;SDS011;3443;48.812;9.112;2022-12-26T16:36:28;0.50;;;0.50;;
6809;SDS011;3443;48.812;9.112;2022-12-26T16:38:59;0.40;;;0.40;;
6809;SDS011;3443;48.812;9.112;2022-12-26T16:43:52;0.90;;;0.90;;
6809;SDS011;3443;48.812;9.112;2022-12-26T16:46:23;0.50;;;0.50;;
6809;SDS011;3443;48.812;9.112;2022-12-26T16:48:59;0.70;;;0.70;;
6809;SDS011;3443;48.812;9.112;2022-12-26T16:51:44;1.15;;;0.43;;
6809;SDS011;3443;48.812;9.112;2022-12-26T16:54:25;0.57;;;0.57;;
6809;SDS011;3443;48.812;9.112;2022-12-26T16:59:22;0.30;;;0.30;;
6809;SDS011;3443;48.812;9.112;2022-12-26T17:01:51;0.35;;;0.35;;
6809;SDS011;3443;48.812;9.112;2022-12-26T17:04:23;0.80;;;0.70;;
6809;SDS011;3443;48.812;9.112;2022-12-26T17:06:55;2.22;;;0.60;;
6809;SDS011;3443;48.812;9.112;2022-12-26T17:09:24;0.80;;;0.80;;
6809;SDS011;3443;48.812;9.112;2022-12-26T17:12:02;0.50;;;0.50;;
6809;SDS011;3443;48.812;9.112;2022-12-26T17:14:33;0.40;;;0.40;;
6809;SDS011;3443;48.812;9.112;2022-12-26T17:17:02;0.50;;;0.40;;
6809;SDS011;3443;48.812;9.112;2022-12-26T17:19:32;0.65;;;0.50;;
6809;SDS011;3443;48.812;9.112;2022-12-26T17:24:52;0.60;;;0.60;;
6809;SDS011;3443;48.812;9.112;2022-12-26T17:27:47;0.93;;;0.82;;
6809;SDS011;3443;48.812;9.112;2022-12-26T17:30:43;0.70;;;0.70;;
6809;SDS011;3443;48.812;9.112;2022-12-26T17:33:25;1.08;;;0.70;;
6809;SDS011;3443;48.812;9.112;2022-12-26T17:36:01;1.80;;;1.52;;
6809;SDS011;3443;48.812;9.112;2022-12-26T17:38:31;1.80;;;1.10;;
6809;SDS011;3443;48.812;9.112;2022-12-26T17:40:59;0.73;;;0.73;;
6809;SDS011;3443;48.812;9.112;2022-12-26T17:43:31;0.95;;;0.95;;
6809;SDS011;3443;48.812;9.112;2022-12-26T17:45:59;2.08;;;1.98;;
6809;SDS011;3443;48.812;9.112;2022-12-26T17:48:25;1.85;;;1.40;;
6809;SDS011;3443;48.812;9.112;2022-12-26T17:50:58;1.80;;;1.70;;
6809;SDS011;3443;48.812;9.112;2022-12-26T17:53:26;5.25;;;3.63;;
6809;SDS011;3443;48.812;9.112;2022-12-26T17:55:55;6.28;;;4.10;;
6809;SDS011;3443;48.812;9.112;2022-12-26T17:58:23;10.15;;;7.07;;
6809;SDS011;3443;48.812;9.112;2022-12-26T18:00:49;4.18;;;3.78;;
6809;SDS011;3443;48.812;9.112;2022-12-26T18:03:14;3.55;;;3.10;;
6809;SDS011;3443;48.812;9.112;2022-12-26T18:05:40;1.65;;;1.55;;
6809;SDS011;3443;48.812;9.112;2022-12-26T18:08:06;1.13;;;1.10;;
6809;SDS011;3443;48.812;9.112;2022-12-26T18:10:36;1.83;;;0.98;;
6809;SDS011;3443;48.812;9.112;2022-12-26T18:13:01;2.05;;;1.05;;
6809;SDS011;3443;48.812;9.112;2022-12-26T18:15:28;1.10;;;1.10;;
6809;SDS011;3443;48.812;9.112;2022-12-26T18:17:55;1.33;;;1.30;;
6809;SDS011;3443;48.812;9.112;2022-12-26T18:22:48;0.60;;;0.60;;
6809;SDS011;3443;48.812;9.112;2022-12-26T18:25:15;0.35;;;0.35;;
6809;SDS011;3443;48.812;9.112;2022-12-26T18:27:42;1.35;;;0.52;;
6809;SDS011;3443;48.812;9.112;2022-12-26T18:30:13;0.40;;;0.40;;
6809;SDS011;3443;48.812;9.112;2022-12-26T18:32:44;0.95;;;0.30;;
6809;SDS011;3443;48.812;9.112;2022-12-26T18:35:11;0.20;;;0.10;;
6809;SDS011;3443;48.812;9.112;2022-12-26T18:37:37;0.20;;;0.10;;
6809;SDS011;3443;48.812;9.112;2022-12-26T18:40:10;0.30;;;0.30;;
6809;SDS011;3443;48.812;9.112;2022-12-26T18:42:48;0.28;;;0.20;;
6809;SDS011;3443;48.812;9.112;2022-12-26T18:45:14;0.17;;;0.15;;
6809;SDS011;3443;48.812;9.112;2022-12-26T18:47:39;0.65;;;0.10;;
6809;SDS011;3443;48.812;9.112;2022-12-26T18:50:09;0.10;;;0.10;;
6809;SDS011;3443;48.812;9.112;2022-12-26T18:52:36;0.20;;;0.20;;
6809;SDS011;3443;48.812;9.112;2022-12-26T18:55:02;0.47;;;0.15;;
6809;SDS011;3443;48.812;9.112;2022-12-26T18:57:27;0.20;;;0.20;;
6809;SDS011;3443;48.812;9.112;2022-12-26T18:59:53;0.22;;;0.22;;
6809;SDS011;3443;48.812;9.112;2022-12-26T19:02:18;0.60;;;0.20;;
6809;SDS011;3443;48.812;9.112;2022-12-26T19:04:44;0.20;;;0.20;;
6809;SDS011;3443;48.812;9.112;2022-12-26T19:07:15;2.45;;;0.20;;
6809;SDS011;3443;48.812;9.112;2022-12-26T19:09:44;0.47;;;0.20;;
6809;SDS011;3443;48.812;9.112;2022-12-26T19:12:12;0.88;;;0.30;;
6809;SDS011;3443;48.812;9.112;2022-12-26T19:14:38;0.20;;;0.20;;
6809;SDS011;3443;48.812;9.112;2022-12-26T19:17:04;0.20;;;0.20;;
6809;SDS011;3443;48.812;9.112;2022-12-26T19:19:30;2.53;;;0.22;;
6809;SDS011;3443;48.812;9.112;2022-12-26T19:21:55;1.40;;;1.25;;
6809;SDS011;3443;48.812;9.112;2022-12-26T19:24:21;5.05;;;3.70;;
6809;SDS011;3443;48.812;9.112;2022-12-26T19:26:47;0.30;;;0.30;;
6809;SDS011;3443;48.812;9.112;2022-12-26T19:29:13;0.70;;;0.35;;
6809;SDS011;3443;48.812;9.112;2022-12-26T19:31:39;0.30;;;0.30;;
6809;SDS011;3443;48.812;9.112;2022-12-26T19:34:05;0.20;;;0.20;;
6809;SDS011;3443;48.812;9.112;2022-12-26T19:36:31;0.73;;;0.30;;
6809;SDS011;3443;48.812;9.112;2022-12-26T19:38:58;0.40;;;0.40;;
6809;SDS011;3443;48.812;9.112;2022-12-26T19:41:23;0.80;;;0.40;;
6809;SDS011;3443;48.812;9.112;2022-12-26T19:43:56;0.47;;;0.40;;
6809;SDS011;3443;48.812;9.112;2022-12-26T19:46:23;0.57;;;0.30;;
6809;SDS011;3443;48.812;9.112;2022-12-26T19:48:49;2.40;;;0.30;;